14 août 2022

Temps Code Temps Temp. Vue Base cloud Vent METAR/SPECI
01:30
V
25 °C 10 km+ - 220° 220° 6 kt METAR LFLW 132330Z AUTO 22006KT 150V260 9999 -RA ///CB 25/15 Q1012
01:00
V
23 °C 10 km+ - Var Var 3 kt METAR LFLW 132300Z AUTO VRB03KT 9999 ///CB 23/11 Q1012
00:30
V
23 °C 10 km+ - 080° 080° 4 kt METAR LFLW 132230Z AUTO 08004KT 9999 ///TCU 23/11 Q1012
00:00
V
23 °C 10 km+ - 100° 100° 4 kt METAR LFLW 132200Z AUTO 10004KT 070V210 CAVOK 23/11 Q1012

13 août 2022

Temps Code Temps Temp. Vue Base cloud Vent METAR/SPECI
23:30
V
23 °C 10 km+ - 120° 120° 4 kt METAR LFLW 132130Z AUTO 12004KT 070V140 CAVOK 23/11 Q1012
23:00
V
25 °C 10 km+ - 050° 050° 7 kt METAR LFLW 132100Z AUTO 05007KT CAVOK 25/10 Q1012
22:30
V
24 °C 10 km+ - 090° 090° 4 kt METAR LFLW 132030Z AUTO 09004KT CAVOK 24/11 Q1012
22:00
V
25 °C 10 km+ - 110° 110° 3 kt METAR LFLW 132000Z AUTO 11003KT CAVOK 25/11 Q1012
21:30
V
26 °C 10 km+ - 100° 100° 2 kt METAR LFLW 131930Z AUTO 10002KT CAVOK 26/10 Q1012
21:00
V
28 °C 10 km+ - Var 000° 0 kt METAR LFLW 131900Z AUTO 00000KT CAVOK 28/10 Q1012
20:30
V
31 °C 10 km+ - Var Var 1 kt METAR LFLW 131830Z AUTO VRB01KT CAVOK 31/08 Q1012
20:00
V
32 °C 10 km+ - 260° 260° 4 kt METAR LFLW 131800Z AUTO 26004KT 240V300 CAVOK 32/09 Q1012
19:30
V
33 °C 10 km+ - 260° 260° 5 kt METAR LFLW 131730Z AUTO 26005KT 220V310 CAVOK 33/08 Q1012
19:00
V
33 °C 10 km+ - 300° 300° 5 kt METAR LFLW 131700Z AUTO 30005KT 250V350 CAVOK 33/08 Q1012 NOSIG
18:30
V
33 °C 10 km+ - 300° 300° 5 kt METAR LFLW 131630Z AUTO 30005KT 250V350 CAVOK 33/07 Q1012 NOSIG
18:00
V
34 °C 10 km+ - 320° 320° 6 kt METAR LFLW 131600Z AUTO 32006KT 270V360 CAVOK 34/06 Q1012 NOSIG
17:30
V
34 °C 10 km+ - 320° 320° 6 kt METAR LFLW 131530Z AUTO 32006KT 270V020 CAVOK 34/07 Q1013 NOSIG
17:00
V
34 °C 10 km+ - 300° 300° 5 kt METAR LFLW 131500Z AUTO 30005KT 260V360 CAVOK 34/08 Q1013 NOSIG
16:30
V
34 °C 10 km+ - 300° 300° 5 kt METAR LFLW 131430Z AUTO 30005KT 230V030 CAVOK 34/09 Q1013 NOSIG
16:00
V
34 °C 10 km+ - 290° 290° 6 kt METAR LFLW 131400Z AUTO 29006KT 230V350 CAVOK 34/10 Q1013 NOSIG
15:30
V
34 °C 10 km+ - 280° 280° 7 kt METAR LFLW 131330Z AUTO 28007KT 220V340 CAVOK 34/10 Q1013 NOSIG
15:00
V
34 °C 10 km+ - Var Var 6 kt METAR LFLW 131300Z AUTO VRB06KT CAVOK 34/10 Q1014 NOSIG
14:30
V
33 °C 10 km+ - 300° 300° 6 kt METAR LFLW 131230Z AUTO 30006KT 230V010 CAVOK 33/10 Q1014 NOSIG
14:00
V
32 °C 10 km+ - 310° 310° 7 kt METAR LFLW 131200Z AUTO 31007KT 260V350 CAVOK 32/10 Q1014 NOSIG
13:30
V
32 °C 10 km+ - 300° 300° 6 kt METAR LFLW 131130Z AUTO 30006KT 250V010 CAVOK 32/10 Q1014 NOSIG
13:00
V
31 °C 10 km+ - Var Var 5 kt METAR LFLW 131100Z AUTO VRB05KT CAVOK 31/10 Q1014 NOSIG
12:30
V
31 °C 10 km+ - Var Var 5 kt METAR LFLW 131030Z AUTO VRB05KT CAVOK 31/09 Q1015 NOSIG
12:00
V
30 °C 10 km+ - 270° 270° 5 kt METAR LFLW 131000Z AUTO 27005KT 230V310 CAVOK 30/11 Q1015 NOSIG
11:30
V
30 °C 10 km+ - 230° 230° 4 kt METAR LFLW 130930Z AUTO 23004KT 190V330 CAVOK 30/11 Q1015 NOSIG
11:00
V
28 °C 10 km+ - 290° 290° 3 kt METAR LFLW 130900Z AUTO 29003KT 220V330 CAVOK 28/11 Q1015 NOSIG
10:30
V
27 °C 10 km+ - Var Var 2 kt METAR LFLW 130830Z AUTO VRB02KT CAVOK 27/11 Q1015 NOSIG
10:00
V
27 °C 10 km+ - Var Var 2 kt METAR LFLW 130800Z AUTO VRB02KT CAVOK 27/11 Q1015 NOSIG
09:30
V
25 °C 10 km+ - Var Var 1 kt METAR LFLW 130730Z AUTO VRB01KT CAVOK 25/11 Q1015 NOSIG
09:00
V
21 °C 10 km+ - Var Var 2 kt METAR LFLW 130700Z AUTO VRB02KT CAVOK 21/11 Q1014 NOSIG
08:30
V
19 °C 10 km+ - 080° 080° 3 kt METAR LFLW 130630Z AUTO 08003KT CAVOK 19/11 Q1015 NOSIG
08:00
V
17 °C 10 km+ - 110° 110° 3 kt METAR LFLW 130600Z AUTO 11003KT 080V140 CAVOK 17/11 Q1014 NOSIG
07:30
V
16 °C 10 km+ - 110° 110° 2 kt METAR LFLW 130530Z AUTO 11002KT CAVOK 16/10 Q1014 NOSIG
07:00
V
15 °C 10 km+ - 100° 100° 2 kt METAR LFLW 130500Z AUTO 10002KT CAVOK 15/10 Q1014
06:30
V
15 °C 10 km+ - 110° 110° 4 kt METAR LFLW 130430Z AUTO 11004KT CAVOK 15/10 Q1014
06:00
V
15 °C 10 km+ - 100° 100° 3 kt METAR LFLW 130400Z AUTO 10003KT CAVOK 15/11 Q1014
05:30
V
15 °C 10 km+ - 110° 110° 4 kt METAR LFLW 130330Z AUTO 11004KT CAVOK 15/10 Q1014
05:00
V
17 °C 10 km+ - 120° 120° 3 kt METAR LFLW 130300Z AUTO 12003KT CAVOK 17/10 Q1014
04:30
V
16 °C 10 km+ - 120° 120° 3 kt METAR LFLW 130230Z AUTO 12003KT CAVOK 16/10 Q1014
04:00
V
17 °C 10 km+ - 120° 120° 3 kt METAR LFLW 130200Z AUTO 12003KT CAVOK 17/11 Q1014
03:30
V
18 °C 10 km+ - 100° 100° 4 kt METAR LFLW 130130Z AUTO 10004KT CAVOK 18/11 Q1014
03:00
V
17 °C 10 km+ - 120° 120° 4 kt METAR LFLW 130100Z AUTO 12004KT CAVOK 17/11 Q1014
02:30
V
19 °C 10 km+ - 110° 110° 3 kt METAR LFLW 130030Z AUTO 11003KT CAVOK 19/11 Q1014
02:00
V
19 °C 10 km+ - 130° 130° 4 kt METAR LFLW 130000Z AUTO 13004KT CAVOK 19/11 Q1014
01:30
V
20 °C 10 km+ - 100° 100° 4 kt METAR LFLW 122330Z AUTO 10004KT CAVOK 20/11 Q1014
01:00
V
20 °C 10 km+ - 110° 110° 3 kt METAR LFLW 122300Z AUTO 11003KT CAVOK 20/11 Q1015
00:30
V
21 °C 10 km+ - 100° 100° 3 kt METAR LFLW 122230Z AUTO 10003KT CAVOK 21/11 Q1015
00:00
V
21 °C 10 km+ - 110° 110° 3 kt METAR LFLW 122200Z AUTO 11003KT CAVOK 21/11 Q1015

12 août 2022

Temps Code Temps Temp. Vue Base cloud Vent METAR/SPECI
23:30
V
22 °C 10 km+ - 070° 070° 3 kt METAR LFLW 122130Z AUTO 07003KT CAVOK 22/11 Q1015
23:00
V
24 °C 10 km+ - 050° 050° 3 kt METAR LFLW 122100Z AUTO 05003KT 020V120 CAVOK 24/11 Q1015
22:30
V
25 °C 10 km+ - Var Var 2 kt METAR LFLW 122030Z AUTO VRB02KT CAVOK 25/11 Q1014
22:00
V
27 °C 10 km+ - 360° 360° 2 kt METAR LFLW 122000Z AUTO 36002KT CAVOK 27/10 Q1014
21:30
V
29 °C 10 km+ - 310° 310° 2 kt METAR LFLW 121930Z AUTO 31002KT CAVOK 29/10 Q1014
21:00
V
30 °C 10 km+ - Var Var 3 kt METAR LFLW 121900Z AUTO VRB03KT CAVOK 30/10 Q1014
19:00
V
34 °C 10 km+ - 300° 300° 9 kt METAR LFLW 121700Z AUTO 30009KT 260V350 CAVOK 34/10 Q1013 NOSIG
18:30
V
34 °C 10 km+ - 310° 310° 8 kt METAR LFLW 121630Z AUTO 31008KT 260V360 CAVOK 34/10 Q1013 NOSIG
18:00
V
34 °C 10 km+ - 280° 280° 9 kt METAR LFLW 121600Z AUTO 28009KT 240V310 CAVOK 34/10 Q1014 NOSIG
17:30
V
35 °C 10 km+ - 290° 290° 9 kt METAR LFLW 121530Z AUTO 29009KT 240V340 CAVOK 35/10 Q1014 NOSIG
17:00
V
35 °C 10 km+ - 310° 310° 9 kt METAR LFLW 121500Z AUTO 31009KT 260V360 CAVOK 35/10 Q1014 NOSIG
16:30
V
35 °C 10 km+ - 300° 300° 11 kt METAR LFLW 121430Z AUTO 30011KT 250V360 CAVOK 35/10 Q1014 NOSIG
16:00
V
34 °C 10 km+ - 290° 290° 10 kt METAR LFLW 121400Z AUTO 29010KT 240V340 CAVOK 34/10 Q1015 NOSIG
15:30
V
34 °C 10 km+ - 290° 290° 9 kt METAR LFLW 121330Z AUTO 29009KT 240V010 CAVOK 34/11 Q1015 NOSIG
15:00
V
34 °C 10 km+ - 310° 310° 9 kt METAR LFLW 121300Z AUTO 31009KT 250V360 CAVOK 34/10 Q1015 NOSIG
14:30
V
34 °C 10 km+ - 290° 290° 9 kt METAR LFLW 121230Z AUTO 29009KT 250V010 CAVOK 34/10 Q1015 NOSIG
14:00
V
34 °C 10 km+ - 290° 290° 10 kt METAR LFLW 121200Z AUTO 29010KT 250V340 CAVOK 34/11 Q1015 NOSIG
13:30
V
33 °C 10 km+ - 290° 290° 9 kt METAR LFLW 121130Z AUTO 29009KT 250V010 CAVOK 33/10 Q1015 NOSIG
13:00
V
32 °C 10 km+ - 310° 310° 7 kt METAR LFLW 121100Z AUTO 31007KT 250V360 CAVOK 32/11 Q1016 NOSIG
12:30
V
32 °C 10 km+ - 280° 280° 7 kt METAR LFLW 121030Z AUTO 28007KT 240V340 CAVOK 32/11 Q1016 NOSIG
12:00
V
31 °C 10 km+ - 290° 290° 6 kt METAR LFLW 121000Z AUTO 29006KT 250V350 CAVOK 31/12 Q1016 NOSIG
11:30
V
30 °C 10 km+ - 310° 310° 5 kt METAR LFLW 120930Z AUTO 31005KT 260V350 CAVOK 30/13 Q1016 NOSIG
11:00
V
29 °C 10 km+ - 300° 300° 3 kt METAR LFLW 120900Z AUTO 30003KT 230V010 CAVOK 29/13 Q1016 NOSIG
10:30
V
29 °C 10 km+ - Var Var 2 kt METAR LFLW 120830Z AUTO VRB02KT CAVOK 29/12 Q1016 BECMG 30012KT
10:00
V
27 °C 10 km+ - Var Var 2 kt METAR LFLW 120800Z AUTO VRB02KT CAVOK 27/10 Q1016 BECMG 30012KT
09:30
V
24 °C 10 km+ - Var Var 3 kt METAR LFLW 120730Z AUTO VRB03KT CAVOK 24/10 Q1016 NOSIG
09:00
V
22 °C 10 km+ - 090° 090° 4 kt METAR LFLW 120700Z AUTO 09004KT 070V140 CAVOK 22/10 Q1016 BECMG 30012KT
08:30
V
20 °C 10 km+ - 120° 120° 3 kt METAR LFLW 120630Z AUTO 12003KT 080V160 CAVOK 20/10 Q1016 BECMG 30012KT
08:00
V
19 °C 10 km+ - Var Var 3 kt METAR LFLW 120600Z AUTO VRB03KT CAVOK 19/10 Q1016 NOSIG
07:30
V
16 °C 10 km+ - 160° 160° 2 kt METAR LFLW 120530Z AUTO 16002KT CAVOK 16/09 Q1016 NOSIG
07:00
V
16 °C 10 km+ - 090° 090° 2 kt METAR LFLW 120500Z AUTO 09002KT CAVOK 16/09 Q1016
06:30
V
16 °C 10 km+ - 100° 100° 3 kt METAR LFLW 120430Z AUTO 10003KT CAVOK 16/09 Q1016
06:00
V
17 °C 10 km+ - 130° 130° 4 kt METAR LFLW 120400Z AUTO 13004KT CAVOK 17/09 Q1016
05:30
V
17 °C 10 km+ - 090° 090° 3 kt METAR LFLW 120330Z AUTO 09003KT 060V210 CAVOK 17/08 Q1016
05:00
V
18 °C 10 km+ - 110° 110° 6 kt METAR LFLW 120300Z AUTO 11006KT 080V180 CAVOK 18/09 Q1016
04:30
V
18 °C 10 km+ - Var Var 3 kt METAR LFLW 120230Z AUTO VRB03KT CAVOK 18/09 Q1016
04:00
V
19 °C 10 km+ - 090° 090° 6 kt METAR LFLW 120200Z AUTO 09006KT CAVOK 19/08 Q1016
03:30
V
20 °C 10 km+ - 090° 090° 9 kt METAR LFLW 120130Z AUTO 09009KT CAVOK 20/09 Q1016
03:00
V
21 °C 10 km+ - 070° 070° 8 kt METAR LFLW 120100Z AUTO 07008KT CAVOK 21/09 Q1017
02:30
V
19 °C 10 km+ - 080° 080° 7 kt METAR LFLW 120030Z AUTO 08007KT CAVOK 19/10 Q1017
02:00
V
19 °C 10 km+ - 080° 080° 6 kt METAR LFLW 120000Z AUTO 08006KT CAVOK 19/10 Q1017
01:30
V
19 °C 10 km+ - 080° 080° 7 kt METAR LFLW 112330Z AUTO 08007KT CAVOK 19/11 Q1017
01:00
V
19 °C 10 km+ - 100° 100° 4 kt METAR LFLW 112300Z AUTO 10004KT CAVOK 19/11 Q1017
00:30
V
19 °C 10 km+ - 110° 110° 3 kt METAR LFLW 112230Z AUTO 11003KT CAVOK 19/11 Q1017
00:00
V
21 °C 10 km+ - 110° 110° 3 kt METAR LFLW 112200Z AUTO 11003KT CAVOK 21/11 Q1017

11 août 2022

Temps Code Temps Temp. Vue Base cloud Vent METAR/SPECI
23:30
V
22 °C 10 km+ - 120° 120° 4 kt METAR LFLW 112130Z AUTO 12004KT CAVOK 22/11 Q1017
23:00
V
22 °C 10 km+ - 120° 120° 3 kt METAR LFLW 112100Z AUTO 12003KT CAVOK 22/11 Q1017
22:30
V
23 °C 10 km+ - 120° 120° 3 kt METAR LFLW 112030Z AUTO 12003KT CAVOK 23/11 Q1017
22:00
V
26 °C 10 km+ - 050° 050° 1 kt METAR LFLW 112000Z AUTO 05001KT CAVOK 26/11 Q1016
21:30
V
27 °C 10 km+ - Var Var 2 kt METAR LFLW 111930Z AUTO VRB02KT CAVOK 27/10 Q1016
21:00
V
30 °C 10 km+ - 330° 330° 2 kt METAR LFLW 111900Z AUTO 33002KT CAVOK 30/10 Q1016
20:30
V
31 °C 10 km+ - Var Var 3 kt METAR LFLW 111830Z AUTO VRB03KT CAVOK 31/10 Q1016
20:00
V
33 °C 10 km+ - 310° 310° 5 kt METAR LFLW 111800Z AUTO 31005KT 270V350 CAVOK 33/09 Q1016
19:30
V
34 °C 10 km+ - 280° 280° 3 kt METAR LFLW 111730Z AUTO 28003KT 200V340 CAVOK 34/10 Q1015
19:00
V
33 °C 10 km+ - 280° 280° 6 kt METAR LFLW 111700Z AUTO 28006KT 230V330 CAVOK 33/09 Q1015 NOSIG
18:30
V
34 °C 10 km+ - 280° 280° 8 - 18 kt METAR LFLW 111630Z AUTO 28008G18KT 230V330 CAVOK 34/09 Q1016 NOSIG
18:00
V
34 °C 10 km+ - 250° 250° 5 kt METAR LFLW 111600Z AUTO 25005KT 180V310 CAVOK 34/09 Q1016 NOSIG
17:30
V
34 °C 10 km+ - 330° 330° 5 kt METAR LFLW 111530Z AUTO 33005KT 250V020 CAVOK 34/10 Q1016 NOSIG
17:00
V
34 °C 10 km+ - 270° 270° 7 kt METAR LFLW 111500Z AUTO 27007KT 230V320 CAVOK 34/09 Q1016 NOSIG
Données plus anciennes

Nous et des tiers suivons ton comportement sur Internet sur notre site Web à l'aide de cookies. Si tu continues, nous supposons que tu acceptes notre politique en matière de cookies. Apprendre plus